Time;durP1;ratioP1;P1;durP2;ratioP2;P2;SDS_P1;SDS_P2;PMS_P1;PMS_P2;Temp;Humidity;BMP_temperature;BMP_pressure;BME280_temperature;BME280_humidity;BME280_pressure;Samples;Min_cycle;Max_cycle;Signal;HPM_P1;HPM_P2
2023/07/07 05:55:46;;;;;;;6.25;3.42;;;;;;;;;;10503815;28;20025;-84
2023/07/07 06:00:50;;;;;;;5.40;3.30;;;;;;;;;;10499644;28;20031;-82
2023/07/07 06:06:10;;;;;;;4.25;2.85;;;;;;;;;;10494309;28;20033;-82
2023/07/07 06:11:12;;;;;;;5.28;2.90;;;;;;;;;;10495656;28;20163;-82
2023/07/07 06:16:13;;;;;;;6.00;3.33;;;;;;;;;;10495968;28;20379;-83
2023/07/07 06:21:14;;;;;;;5.32;2.75;;;;;;;;;;10499591;28;20020;-83
2023/07/07 06:26:15;;;;;;;5.15;2.97;;;;;;;;;;10499806;28;20024;-83
2023/07/07 06:31:16;;;;;;;2.97;2.28;;;;;;;;;;10499546;28;20120;-83
2023/07/07 06:36:17;;;;;;;3.28;2.00;;;;;;;;;;10498744;28;20028;-83
2023/07/07 06:41:20;;;;;;;5.30;2.70;;;;;;;;;;10499567;28;20024;-83
2023/07/07 06:46:23;;;;;;;4.68;2.63;;;;;;;;;;10496891;28;20112;-83
2023/07/07 06:51:24;;;;;;;4.03;2.53;;;;;;;;;;10500840;28;20108;-83
2023/07/07 06:56:25;;;;;;;3.72;2.30;;;;;;;;;;10506817;28;20033;-83
2023/07/07 07:01:26;;;;;;;4.95;2.22;;;;;;;;;;10471724;28;20485;-83
2023/07/07 07:06:27;;;;;;;4.07;2.20;;;;;;;;;;10471439;28;20035;-83
2023/07/07 07:11:28;;;;;;;5.15;2.33;;;;;;;;;;10472657;28;20021;-83
2023/07/07 07:16:29;;;;;;;5.22;2.08;;;;;;;;;;10469563;28;20021;-84
2023/07/07 07:21:30;;;;;;;3.17;2.00;;;;;;;;;;10498603;28;20005;-84
2023/07/07 07:26:31;;;;;;;4.30;2.40;;;;;;;;;;10484464;28;20079;-84
2023/07/07 07:31:33;;;;;;;6.72;2.92;;;;;;;;;;10478727;28;20052;-86
2023/07/07 07:36:34;;;;;;;3.40;2.15;;;;;;;;;;10468485;28;20025;-86
2023/07/07 07:41:37;;;;;;;8.57;3.13;;;;;;;;;;10468827;28;20047;-85
2023/07/07 07:46:38;;;;;;;2.90;2.03;;;;;;;;;;10467455;28;20106;-85
2023/07/07 07:51:39;;;;;;;7.93;3.67;;;;;;;;;;10487822;28;20051;-84
2023/07/07 07:56:40;;;;;;;5.18;2.10;;;;;;;;;;10494837;28;20128;-85
2023/07/07 08:01:42;;;;;;;3.72;2.88;;;;;;;;;;10495433;28;20033;-84
2023/07/07 08:06:43;;;;;;;4.53;2.40;;;;;;;;;;10494953;28;20062;-85
2023/07/07 08:11:44;;;;;;;3.95;2.45;;;;;;;;;;10494405;28;20082;-84
2023/07/07 08:16:49;;;;;;;5.90;2.72;;;;;;;;;;10500963;28;20040;-84
2023/07/07 08:21:50;;;;;;;5.32;2.85;;;;;;;;;;10498821;28;20037;-85
2023/07/07 08:26:51;;;;;;;5.25;2.22;;;;;;;;;;10474251;28;20087;-85
2023/07/07 08:31:52;;;;;;;4.78;2.50;;;;;;;;;;10464687;28;20049;-85
2023/07/07 08:36:59;;;;;;;4.70;2.30;;;;;;;;;;10471193;28;20075;-84
2023/07/07 08:42:02;;;;;;;3.92;2.42;;;;;;;;;;10464881;28;20017;-86
2023/07/07 08:47:08;;;;;;;4.38;3.50;;;;;;;;;;10460907;28;20032;-85
2023/07/07 08:52:15;;;;;;;4.40;2.00;;;;;;;;;;10465810;28;20031;-84
2023/07/07 08:57:18;;;;;;;4.25;2.45;;;;;;;;;;10477295;28;20056;-84
2023/07/07 09:02:28;;;;;;;4.32;2.30;;;;;;;;;;10473961;28;20047;-84
2023/07/07 09:07:37;;;;;;;7.43;4.90;;;;;;;;;;10469304;28;20498;-84
2023/07/07 09:12:53;;;;;;;5.45;2.90;;;;;;;;;;10465836;28;20049;-84
2023/07/07 09:17:57;;;;;;;3.90;2.50;;;;;;;;;;10467658;28;20067;-84
2023/07/07 09:22:58;;;;;;;4.32;2.45;;;;;;;;;;10471334;28;20017;-83
2023/07/07 09:28:03;;;;;;;4.55;2.20;;;;;;;;;;10464147;28;20052;-84
2023/07/07 09:33:04;;;;;;;3.10;2.20;;;;;;;;;;10461968;28;20092;-85
2023/07/07 09:38:09;;;;;;;3.65;1.73;;;;;;;;;;10462000;28;20032;-84
2023/07/07 09:43:10;;;;;;;8.10;5.93;;;;;;;;;;10464656;28;20056;-85
2023/07/07 09:48:19;;;;;;;3.90;2.20;;;;;;;;;;10461557;28;20051;-84
2023/07/07 09:53:24;;;;;;;3.13;2.22;;;;;;;;;;10460466;28;20120;-84
2023/07/07 09:58:38;;;;;;;5.05;2.45;;;;;;;;;;10460417;28;20064;-84
2023/07/07 10:03:41;;;;;;;5.60;2.47;;;;;;;;;;10462915;28;20463;-84
2023/07/07 10:08:42;;;;;;;5.20;2.40;;;;;;;;;;10461946;28;20048;-83
2023/07/07 10:13:43;;;;;;;5.18;2.33;;;;;;;;;;10466115;28;20395;-83
2023/07/07 10:18:45;;;;;;;4.20;2.72;;;;;;;;;;10480957;28;20033;-84
2023/07/07 10:23:46;;;;;;;4.55;2.58;;;;;;;;;;10498035;28;20078;-84
2023/07/07 10:28:47;;;;;;;3.92;2.72;;;;;;;;;;10474060;28;20083;-84
2023/07/07 10:33:50;;;;;;;5.00;2.22;;;;;;;;;;10462450;28;20098;-84
2023/07/07 10:38:55;;;;;;;3.65;2.90;;;;;;;;;;10476189;28;20037;-85
2023/07/07 10:43:59;;;;;;;8.27;3.00;;;;;;;;;;10475190;28;20483;-84
2023/07/07 10:49:04;;;;;;;6.07;2.30;;;;;;;;;;10466274;28;20033;-84
2023/07/07 10:54:10;;;;;;;4.07;2.10;;;;;;;;;;10464620;28;20029;-85
2023/07/07 10:59:24;;;;;;;4.80;2.10;;;;;;;;;;10464018;28;20036;-85
2023/07/07 11:04:34;;;;;;;5.03;2.30;;;;;;;;;;10463393;28;20052;-85
2023/07/07 11:09:47;;;;;;;4.13;2.30;;;;;;;;;;10462879;28;20114;-85
2023/07/07 11:14:58;;;;;;;4.93;2.10;;;;;;;;;;10464445;28;20032;-85
2023/07/07 11:20:06;;;;;;;3.03;2.00;;;;;;;;;;10464480;28;20017;-85
2023/07/07 11:25:07;;;;;;;5.25;2.65;;;;;;;;;;10461632;28;20037;-85
2023/07/07 11:30:19;;;;;;;3.60;2.20;;;;;;;;;;10461277;28;20143;-85
2023/07/07 11:35:37;;;;;;;4.10;2.20;;;;;;;;;;10461315;28;20025;-85
2023/07/07 11:41:14;;;;;;;13.93;12.10;;;;;;;;;;10462298;28;20565;-86
2023/07/07 11:46:15;;;;;;;3.15;2.45;;;;;;;;;;10467388;28;20037;-84
2023/07/07 11:51:26;;;;;;;3.47;2.30;;;;;;;;;;10473675;28;20036;-84
2023/07/07 11:56:41;;;;;;;5.90;2.10;;;;;;;;;;10460880;28;20491;-85
2023/07/07 12:01:45;;;;;;;5.40;3.30;;;;;;;;;;10469889;28;20017;-84
2023/07/07 12:06:49;;;;;;;3.70;2.33;;;;;;;;;;10465636;28;20092;-85
2023/07/07 12:11:52;;;;;;;5.40;3.65;;;;;;;;;;10462794;28;20040;-85
2023/07/07 12:16:53;;;;;;;2.40;1.90;;;;;;;;;;10461409;28;20383;-85
2023/07/07 12:21:55;;;;;;;3.42;2.30;;;;;;;;;;10466062;28;20017;-84
2023/07/07 12:27:08;;;;;;;3.92;2.20;;;;;;;;;;10463499;28;20033;-85
2023/07/07 12:32:10;;;;;;;4.20;2.60;;;;;;;;;;10465156;28;20390;-84
2023/07/07 12:37:22;;;;;;;5.28;3.58;;;;;;;;;;10465155;28;20025;-85
2023/07/07 12:42:24;;;;;;;3.25;2.33;;;;;;;;;;10463121;28;20470;-84
2023/07/07 12:47:30;;;;;;;4.05;2.30;;;;;;;;;;10462103;28;20040;-85
2023/07/07 12:52:42;;;;;;;4.20;2.90;;;;;;;;;;10462656;28;20029;-84
2023/07/07 12:58:02;;;;;;;3.83;2.65;;;;;;;;;;10462465;28;20021;-84
2023/07/07 13:03:10;;;;;;;4.50;3.58;;;;;;;;;;10460990;28;20458;-86
2023/07/07 13:08:23;;;;;;;6.68;3.22;;;;;;;;;;10466011;28;20025;-86
2023/07/07 13:13:25;;;;;;;2.42;1.98;;;;;;;;;;10459400;28;20021;-86
2023/07/07 13:18:46;;;;;;;3.25;2.03;;;;;;;;;;10462432;28;20060;-86
2023/07/07 13:23:50;;;;;;;3.30;2.30;;;;;;;;;;10465471;28;20029;-86
2023/07/07 13:28:51;;;;;;;3.95;2.78;;;;;;;;;;10476714;28;20048;-85
2023/07/07 13:33:53;;;;;;;4.82;2.38;;;;;;;;;;10483314;28;20060;-85
2023/07/07 13:38:54;;;;;;;5.85;2.35;;;;;;;;;;10479571;28;20099;-85
2023/07/07 13:43:55;;;;;;;2.83;2.17;;;;;;;;;;10462884;28;20071;-85
2023/07/07 13:49:00;;;;;;;3.20;1.85;;;;;;;;;;10460895;28;20471;-85
2023/07/07 13:54:03;;;;;;;3.72;2.35;;;;;;;;;;10471138;28;20056;-85
2023/07/07 13:59:04;;;;;;;4.00;2.70;;;;;;;;;;10457624;28;20090;-86
2023/07/07 14:04:10;;;;;;;9.63;2.30;;;;;;;;;;10458612;28;20462;-85
2023/07/07 14:09:46;;;;;;;3.40;2.33;;;;;;;;;;10462493;28;20032;-85
2023/07/07 14:14:49;;;;;;;3.25;2.60;;;;;;;;;;10467923;28;20044;-85
2023/07/07 14:20:16;;;;;;;4.55;2.10;;;;;;;;;;10477805;28;20037;-86
2023/07/07 14:25:50;;;;;;;3.35;2.13;;;;;;;;;;10470657;28;20045;-85
2023/07/07 14:30:56;;;;;;;3.38;2.25;;;;;;;;;;10472843;28;20443;-84
2023/07/07 14:36:12;;;;;;;3.38;2.00;;;;;;;;;;10472463;28;20104;-84
2023/07/07 14:41:17;;;;;;;7.47;5.75;;;;;;;;;;10464016;28;20091;-85
2023/07/07 14:46:35;;;;;;;6.38;3.50;;;;;;;;;;10465517;28;20128;-85
2023/07/07 14:51:44;;;;;;;3.10;2.17;;;;;;;;;;10465687;28;20071;-85
2023/07/07 14:57:00;;;;;;;3.03;2.03;;;;;;;;;;10470285;28;20029;-86
2023/07/07 15:13:58;;;;;;;3.38;2.10;;;;;;;;;;10466001;28;20021;-87
2023/07/07 15:25:01;;;;;;;3.07;2.20;;;;;;;;;;10465461;28;20477;-86
2023/07/07 15:30:35;;;;;;;6.40;2.00;;;;;;;;;;10465633;28;20040;-87
2023/07/07 15:36:02;;;;;;;5.55;2.25;;;;;;;;;;10500450;28;20021;-86
2023/07/07 15:41:11;;;;;;;4.43;3.05;;;;;;;;;;10508408;28;20019;-88
2023/07/07 15:46:13;;;;;;;5.13;2.05;;;;;;;;;;10499833;28;20044;-87
2023/07/07 15:51:20;;;;;;;5.47;2.58;;;;;;;;;;10471329;28;20077;-88
2023/07/07 15:56:23;;;;;;;4.63;2.70;;;;;;;;;;10466413;28;20040;-87
2023/07/07 16:01:24;;;;;;;2.63;1.92;;;;;;;;;;10463425;28;20112;-88
2023/07/07 16:06:25;;;;;;;3.53;2.33;;;;;;;;;;10466303;28;20029;-87
2023/07/07 16:11:27;;;;;;;2.17;1.90;;;;;;;;;;10465808;28;20029;-86
2023/07/07 16:16:28;;;;;;;3.45;1.98;;;;;;;;;;10466464;28;20462;-86
2023/07/07 16:21:29;;;;;;;2.42;2.00;;;;;;;;;;10464146;28;20032;-83
2023/07/07 16:26:33;;;;;;;4.38;2.35;;;;;;;;;;10464337;28;20052;-84
2023/07/07 16:31:35;;;;;;;3.75;2.00;;;;;;;;;;10457644;28;20497;-86
2023/07/07 16:36:36;;;;;;;2.97;2.20;;;;;;;;;;10457301;28;20028;-86
2023/07/07 16:41:41;;;;;;;2.90;1.90;;;;;;;;;;10457372;28;20047;-86
2023/07/07 16:46:51;;;;;;;6.85;4.10;;;;;;;;;;10457749;28;20025;-86
2023/07/07 16:51:55;;;;;;;3.28;2.13;;;;;;;;;;10457719;28;20025;-85
2023/07/07 16:56:56;;;;;;;4.25;2.53;;;;;;;;;;10458054;28;20059;-88
2023/07/07 17:02:02;;;;;;;5.07;3.10;;;;;;;;;;10456364;28;20036;-86
2023/07/07 17:07:03;;;;;;;2.83;2.10;;;;;;;;;;10456378;28;20029;-86
2023/07/07 17:12:11;;;;;;;3.95;2.38;;;;;;;;;;10456499;28;20399;-86
2023/07/07 17:17:13;;;;;;;3.92;2.00;;;;;;;;;;10456101;28;20497;-86
2023/07/07 17:22:14;;;;;;;2.88;2.35;;;;;;;;;;10456327;28;20029;-84
2023/07/07 17:27:26;;;;;;;4.40;3.15;;;;;;;;;;10464036;28;20039;-84
2023/07/07 17:32:27;;;;;;;6.78;4.05;;;;;;;;;;10463555;28;20020;-84
2023/07/07 17:37:28;;;;;;;3.38;2.13;;;;;;;;;;10464844;28;20123;-84
2023/07/07 17:42:29;;;;;;;5.00;2.40;;;;;;;;;;10466728;28;20128;-84
2023/07/07 17:47:30;;;;;;;4.00;2.25;;;;;;;;;;10469974;28;20119;-84
2023/07/07 17:52:31;;;;;;;4.22;2.17;;;;;;;;;;10473681;28;20039;-85
2023/07/07 17:57:32;;;;;;;3.30;2.33;;;;;;;;;;10462138;28;20033;-84
2023/07/07 18:02:33;;;;;;;5.97;3.45;;;;;;;;;;10459981;28;20140;-85
2023/07/07 18:07:34;;;;;;;4.85;3.00;;;;;;;;;;10455942;28;20029;-85
2023/07/07 18:12:35;;;;;;;4.15;3.15;;;;;;;;;;10455164;28;20029;-86
2023/07/07 18:17:37;;;;;;;3.38;2.60;;;;;;;;;;10455304;28;20029;-85
2023/07/07 18:22:38;;;;;;;4.70;3.45;;;;;;;;;;10454678;28;20112;-84
2023/07/07 18:27:39;;;;;;;4.32;2.55;;;;;;;;;;10459818;28;20489;-84
2023/07/07 18:32:40;;;;;;;3.08;2.17;;;;;;;;;;10456701;28;20057;-84
2023/07/07 18:37:41;;;;;;;4.20;1.90;;;;;;;;;;10480001;28;20033;-84
2023/07/07 18:42:42;;;;;;;5.72;2.10;;;;;;;;;;10501212;28;20044;-85
2023/07/07 18:47:43;;;;;;;3.90;2.20;;;;;;;;;;10484316;28;20056;-84
2023/07/07 18:52:44;;;;;;;3.47;2.80;;;;;;;;;;10461680;28;20124;-84
2023/07/07 18:57:45;;;;;;;4.13;2.70;;;;;;;;;;10472622;28;20029;-84
2023/07/07 19:02:46;;;;;;;4.85;2.38;;;;;;;;;;10473101;28;20017;-84
2023/07/07 19:07:48;;;;;;;3.95;2.40;;;;;;;;;;10471384;28;20025;-84
2023/07/07 19:12:49;;;;;;;3.28;2.85;;;;;;;;;;10470000;28;20051;-85
